Barksdale Air Force Base
KBAD : now visible

Airfield :











YOU CAN JOIN US ON...

 
LOGIN :

Register | Disclaimer

   EN    FR    IT 

 









Legend :    VFR   Marginal VFR   IFR   Intensive IFR   Very Intensive IFR
Visi :
Ceiling :
>= 8 km
>= 3000ft
5 to 8 km
1000 to 3000 ft
1500m to 5 km
500 to 1000 ft
800 to 1500m
200 to 500 ft
< 800m
< 200 ft
Symbols :   Thunderstorms  Fog  Heavy snow  Heavy precipitations  Wind > 20 kt






- Airport Elevation : 166 ft


KBAD - Barksdale Air Force Base

CURRENT METAR :
  • 231456Z AUTO 16006KT 10SM FEW027 BKN043 OVC055 09/07 A3019 RMK AO2 SLP227 T00850066 53008

EXPIRED METARs :
  • 231356Z AUTO 16005KT 10SM SCT060 07/06 A3017 RMK AO2 SLP220 T00670056
  • 231256Z AUTO 17006KT 10SM CLR 05/04 A3016 RMK AO2 SLP217 T00470043

TAF TAF KBAD
Valid from the 23 at 10:00 until the 24 at 16:00 UTC


231000Z 2310/2416 18006KT 9999 SCT060 BKN250 QNH3016INS
BECMG 2315/2316 16007KT 9999 OVC030 QNH3008INS
BECMG 2322/2323 17010KT 9999 VCSH OVC015 QNH2991INS
BECMG 2405/2406 18012G18KT 6000 -SHRA BR OVC010 WS020/20040KT QNH2982INS
BECMG 2414/2415 20015G20KT 8000 BR VCSH OVC015 WS020/22030KT QNH2980INS TX15/2322Z TN04/2312Z



MET'MAP, your aeronautical weather chart ! - Copyright ORBIFLY December 2007 - Disclaimer

ORBIFLY MET'MAP TEAM :

Programming & Development : Alexandra Zaïnal
Concept & original design : Baudouin d'Aumeries
Assistance for programming : Marc-Olivier Méhu
Technical & hardware support : Manuel Goepfert

Contact : metmap@orbifly.com




SOURCES & CREDITS :

   NOAA       Earth
Advisory